AFR1P LEIB-LFPG
Flight info
| Callsign | AFR1P |
|---|---|
| Flight time | 1h 35m |
| Altitude | 36000 |
| Route | EPAMA N856 EBROX Z26 LATRO N861 OLOXO DCT OKABI DCT TOU DCT POI/N0429F300 DCT PEPAX UT182 KEPER |
| Aircraft | A321/M-SDE3FGHIRWY/LB1 |
Departure
| Time | 2026-05-08 14:24 |
|---|---|
| Airport | Ibiza Airport (LEIB) |
Arrival
| Time | 2026-05-08 15:59 |
|---|---|
| Airport | Charles de Gaulle International Airport (LFPG) |
| Time | Latitude | Longitude | Altitude | Speed | Heading |
|---|---|---|---|---|---|
| 2026-05-08 14:18 | 38.87355 | 1.36832 | 8 ft | 0 kts | 153° |
| 2026-05-08 14:19 | 38.87328 | 1.36849 | 8 ft | 9 kts | 154° |
| 2026-05-08 14:20 | 38.87274 | 1.36837 | 9 ft | 8 kts | 227° |
| 2026-05-08 14:20 | 38.87251 | 1.36782 | 10 ft | 6 kts | 245° |
| 2026-05-08 14:20 | 38.87228 | 1.36724 | 8 ft | 10 kts | 242° |
| 2026-05-08 14:20 | 38.87181 | 1.36606 | 8 ft | 19 kts | 243° |
| 2026-05-08 14:21 | 38.87105 | 1.36423 | 8 ft | 26 kts | 242° |
| 2026-05-08 14:21 | 38.87022 | 1.36219 | 8 ft | 25 kts | 242° |
| 2026-05-08 14:21 | 38.86948 | 1.36040 | 8 ft | 21 kts | 243° |
| 2026-05-08 14:21 | 38.86903 | 1.35929 | 8 ft | 12 kts | 242° |
| 2026-05-08 14:22 | 38.86866 | 1.35839 | 8 ft | 11 kts | 242° |
| 2026-05-08 14:22 | 38.86820 | 1.35824 | 10 ft | 7 kts | 151° |
| 2026-05-08 14:22 | 38.86776 | 1.35852 | 7 ft | 7 kts | 155° |
| 2026-05-08 14:22 | 38.86724 | 1.35883 | 5 ft | 9 kts | 153° |
| 2026-05-08 14:23 | 38.86711 | 1.35930 | 6 ft | 5 kts | 57° |
| 2026-05-08 14:23 | 38.86721 | 1.35951 | 6 ft | 0 kts | 63° |
| 2026-05-08 14:23 | 38.86729 | 1.35971 | 5 ft | 16 kts | 62° |
| 2026-05-08 14:24 | 38.86900 | 1.36383 | 5 ft | 86 kts | 62° |
| 2026-05-08 14:24 | 38.87268 | 1.37275 | 7 ft | 138 kts | 62° |
| 2026-05-08 14:24 | 38.87754 | 1.38471 | 335 ft | 152 kts | 63° |
| 2026-05-08 14:24 | 38.88197 | 1.39696 | 990 ft | 153 kts | 80° |
| 2026-05-08 14:25 | 38.88362 | 1.41044 | 1594 ft | 153 kts | 77° |
| 2026-05-08 14:25 | 38.88617 | 1.42426 | 1982 ft | 168 kts | 75° |
| 2026-05-08 14:25 | 38.88936 | 1.43965 | 2188 ft | 189 kts | 70° |
| 2026-05-08 14:25 | 38.89766 | 1.45339 | 2344 ft | 209 kts | 36° |
| 2026-05-08 14:26 | 38.91019 | 1.46382 | 2659 ft | 218 kts | 37° |
| 2026-05-08 14:26 | 38.92260 | 1.47669 | 2802 ft | 242 kts | 41° |
| 2026-05-08 14:26 | 38.93561 | 1.49128 | 3305 ft | 257 kts | 42° |
| 2026-05-08 14:26 | 38.94919 | 1.50662 | 4019 ft | 263 kts | 41° |
| 2026-05-08 14:27 | 38.96313 | 1.52220 | 4771 ft | 269 kts | 40° |
| 2026-05-08 14:27 | 38.97752 | 1.53803 | 5460 ft | 275 kts | 39° |
| 2026-05-08 14:27 | 38.99233 | 1.55408 | 6159 ft | 281 kts | 39° |
| 2026-05-08 14:27 | 39.00751 | 1.57037 | 6847 ft | 286 kts | 38° |
| 2026-05-08 14:28 | 39.02298 | 1.58685 | 7527 ft | 291 kts | 38° |
| 2026-05-08 14:28 | 39.03872 | 1.60359 | 8212 ft | 296 kts | 37° |
| 2026-05-08 14:28 | 39.05532 | 1.61942 | 8867 ft | 298 kts | 24° |
| 2026-05-08 14:28 | 39.07492 | 1.62732 | 9511 ft | 295 kts | 0° |
| 2026-05-08 14:29 | 39.09543 | 1.62775 | 10153 ft | 297 kts | 354° |
| 2026-05-08 14:29 | 39.11687 | 1.62755 | 10335 ft | 319 kts | 355° |
| 2026-05-08 14:29 | 39.13981 | 1.62728 | 10487 ft | 339 kts | 355° |
| 2026-05-08 14:29 | 39.16376 | 1.62710 | 10934 ft | 348 kts | 355° |
| 2026-05-08 14:30 | 39.18821 | 1.62702 | 11500 ft | 353 kts | 355° |
| 2026-05-08 14:30 | 39.21295 | 1.62699 | 12086 ft | 358 kts | 355° |
| 2026-05-08 14:30 | 39.23797 | 1.62698 | 12680 ft | 362 kts | 355° |
| 2026-05-08 14:30 | 39.26331 | 1.62696 | 13267 ft | 366 kts | 354° |
| 2026-05-08 14:31 | 39.28900 | 1.62692 | 13840 ft | 371 kts | 354° |
| 2026-05-08 14:31 | 39.30613 | 1.62689 | 14202 ft | 373 kts | 354° |
| 2026-05-08 14:31 | 39.33223 | 1.62682 | 14747 ft | 377 kts | 354° |
| 2026-05-08 14:32 | 39.38509 | 1.62666 | 15820 ft | 383 kts | 354° |
| 2026-05-08 14:32 | 39.41188 | 1.62656 | 16353 ft | 387 kts | 354° |
| 2026-05-08 14:32 | 39.43894 | 1.62646 | 16852 ft | 390 kts | 354° |
| 2026-05-08 14:32 | 39.46619 | 1.62635 | 17358 ft | 393 kts | 354° |
| 2026-05-08 14:33 | 39.49366 | 1.62623 | 17845 ft | 397 kts | 354° |
| 2026-05-08 14:33 | 39.52141 | 1.62613 | 18314 ft | 401 kts | 354° |
| 2026-05-08 14:33 | 39.54939 | 1.62602 | 18732 ft | 404 kts | 354° |
| 2026-05-08 14:33 | 39.57759 | 1.62592 | 19162 ft | 406 kts | 354° |
| 2026-05-08 14:34 | 39.60596 | 1.62582 | 19582 ft | 409 kts | 354° |
| 2026-05-08 14:34 | 39.63444 | 1.62572 | 19992 ft | 411 kts | 354° |
| 2026-05-08 14:34 | 39.66313 | 1.62563 | 20392 ft | 413 kts | 354° |
| 2026-05-08 14:34 | 39.69196 | 1.62556 | 20776 ft | 415 kts | 354° |
| 2026-05-08 14:35 | 39.72095 | 1.62545 | 21165 ft | 418 kts | 354° |
| 2026-05-08 14:35 | 39.75005 | 1.62530 | 21544 ft | 420 kts | 353° |
| 2026-05-08 14:35 | 39.77937 | 1.62520 | 21921 ft | 422 kts | 354° |
| 2026-05-08 14:35 | 39.80887 | 1.62516 | 22299 ft | 425 kts | 354° |
| 2026-05-08 14:36 | 39.83845 | 1.62513 | 22668 ft | 427 kts | 353° |
| 2026-05-08 14:36 | 39.86828 | 1.62504 | 23041 ft | 429 kts | 353° |
| 2026-05-08 14:36 | 39.89823 | 1.62492 | 23417 ft | 432 kts | 353° |
| 2026-05-08 14:36 | 39.92836 | 1.62475 | 23747 ft | 434 kts | 353° |
| 2026-05-08 14:37 | 39.95861 | 1.62457 | 24060 ft | 436 kts | 353° |
| 2026-05-08 14:37 | 39.98904 | 1.62439 | 24383 ft | 438 kts | 354° |
| 2026-05-08 14:37 | 40.01964 | 1.62432 | 24701 ft | 441 kts | 354° |
| 2026-05-08 14:37 | 40.05037 | 1.62430 | 25023 ft | 443 kts | 354° |
| 2026-05-08 14:38 | 40.08125 | 1.62424 | 25343 ft | 445 kts | 354° |
| 2026-05-08 14:38 | 40.11226 | 1.62415 | 25662 ft | 447 kts | 354° |
| 2026-05-08 14:38 | 40.14340 | 1.62405 | 25978 ft | 449 kts | 354° |
| 2026-05-08 14:38 | 40.17471 | 1.62393 | 26286 ft | 451 kts | 354° |
| 2026-05-08 14:39 | 40.20615 | 1.62379 | 26592 ft | 453 kts | 354° |
| 2026-05-08 14:39 | 40.23775 | 1.62365 | 26889 ft | 455 kts | 354° |
| 2026-05-08 14:39 | 40.26949 | 1.62352 | 27187 ft | 457 kts | 354° |
| 2026-05-08 14:39 | 40.30140 | 1.62339 | 27481 ft | 459 kts | 354° |
| 2026-05-08 14:40 | 40.33345 | 1.62330 | 27774 ft | 462 kts | 355° |
| 2026-05-08 14:40 | 40.36563 | 1.62321 | 28057 ft | 464 kts | 355° |
| 2026-05-08 14:40 | 40.39800 | 1.62311 | 28339 ft | 466 kts | 355° |
| 2026-05-08 14:40 | 40.43056 | 1.62304 | 28618 ft | 468 kts | 355° |
| 2026-05-08 14:41 | 40.46319 | 1.62298 | 28895 ft | 470 kts | 355° |
| 2026-05-08 14:41 | 40.49599 | 1.62292 | 29159 ft | 472 kts | 355° |
| 2026-05-08 14:41 | 40.52893 | 1.62282 | 29430 ft | 474 kts | 355° |
| 2026-05-08 14:41 | 40.56201 | 1.62269 | 29689 ft | 476 kts | 355° |
| 2026-05-08 14:42 | 40.59522 | 1.62253 | 29932 ft | 478 kts | 355° |
| 2026-05-08 14:42 | 40.62860 | 1.62238 | 30147 ft | 480 kts | 355° |
| 2026-05-08 14:42 | 40.66207 | 1.62226 | 30333 ft | 482 kts | 355° |
| 2026-05-08 14:42 | 40.69565 | 1.62215 | 30528 ft | 484 kts | 355° |
| 2026-05-08 14:43 | 40.72937 | 1.62203 | 30713 ft | 485 kts | 355° |
| 2026-05-08 14:43 | 40.76314 | 1.62192 | 30953 ft | 485 kts | 355° |
| 2026-05-08 14:43 | 40.79684 | 1.62179 | 31210 ft | 485 kts | 355° |
| 2026-05-08 14:43 | 40.83056 | 1.62163 | 31479 ft | 484 kts | 355° |
| 2026-05-08 14:44 | 40.86432 | 1.62146 | 31739 ft | 484 kts | 355° |
| 2026-05-08 14:44 | 40.89796 | 1.62134 | 32000 ft | 484 kts | 355° |
| 2026-05-08 14:44 | 40.93162 | 1.62127 | 32255 ft | 484 kts | 355° |
| 2026-05-08 14:44 | 40.96528 | 1.62118 | 32518 ft | 483 kts | 355° |
| 2026-05-08 14:45 | 40.99889 | 1.62107 | 32783 ft | 483 kts | 355° |
| 2026-05-08 14:45 | 41.03248 | 1.62094 | 33048 ft | 482 kts | 355° |
| 2026-05-08 14:45 | 41.06604 | 1.62083 | 33312 ft | 482 kts | 355° |
| 2026-05-08 14:45 | 41.09955 | 1.62072 | 33578 ft | 481 kts | 355° |
| 2026-05-08 14:46 | 41.13307 | 1.62060 | 33843 ft | 481 kts | 355° |
| 2026-05-08 14:46 | 41.16654 | 1.62048 | 34087 ft | 480 kts | 355° |
| 2026-05-08 14:46 | 41.19995 | 1.62036 | 34307 ft | 480 kts | 355° |
| 2026-05-08 14:46 | 41.23333 | 1.62024 | 34524 ft | 480 kts | 355° |
| 2026-05-08 14:47 | 41.26668 | 1.62011 | 34737 ft | 479 kts | 356° |
| 2026-05-08 14:47 | 41.30001 | 1.61996 | 34948 ft | 479 kts | 356° |
| 2026-05-08 14:47 | 41.33327 | 1.61982 | 35156 ft | 478 kts | 356° |
| 2026-05-08 14:47 | 41.36656 | 1.61970 | 35365 ft | 478 kts | 356° |
| 2026-05-08 14:48 | 41.39933 | 1.61960 | 35560 ft | 477 kts | 356° |
| 2026-05-08 14:48 | 41.43295 | 1.61950 | 35764 ft | 477 kts | 356° |
| 2026-05-08 14:48 | 41.46610 | 1.61940 | 35952 ft | 477 kts | 356° |
| 2026-05-08 14:48 | 41.49872 | 1.61931 | 36008 ft | 474 kts | 356° |
| 2026-05-08 14:49 | 41.56441 | 1.61918 | 36007 ft | 471 kts | 356° |
| 2026-05-08 14:49 | 41.62985 | 1.61893 | 36010 ft | 470 kts | 356° |
| 2026-05-08 14:50 | 41.69525 | 1.61857 | 36007 ft | 470 kts | 356° |
| 2026-05-08 14:50 | 41.76061 | 1.61827 | 36005 ft | 469 kts | 356° |
| 2026-05-08 14:51 | 41.82521 | 1.60987 | 35993 ft | 466 kts | 350° |
| 2026-05-08 14:51 | 41.88966 | 1.59975 | 35986 ft | 466 kts | 350° |
| 2026-05-08 14:52 | 41.98642 | 1.58438 | 35982 ft | 467 kts | 350° |
| 2026-05-08 14:53 | 42.05099 | 1.57410 | 35984 ft | 467 kts | 351° |
| 2026-05-08 14:53 | 42.11560 | 1.56391 | 36021 ft | 468 kts | 351° |
| 2026-05-08 14:54 | 42.18028 | 1.55368 | 36023 ft | 468 kts | 351° |
| 2026-05-08 14:54 | 42.24491 | 1.54334 | 36025 ft | 468 kts | 351° |
| 2026-05-08 14:55 | 42.30965 | 1.53290 | 36026 ft | 469 kts | 351° |
| 2026-05-08 14:55 | 42.37443 | 1.52245 | 36026 ft | 469 kts | 351° |
| 2026-05-08 14:56 | 42.43928 | 1.51200 | 36030 ft | 469 kts | 351° |
| 2026-05-08 14:56 | 42.50420 | 1.50163 | 36014 ft | 470 kts | 351° |
| 2026-05-08 14:57 | 42.56915 | 1.49122 | 35999 ft | 470 kts | 351° |
| 2026-05-08 14:57 | 42.63418 | 1.48074 | 35994 ft | 471 kts | 351° |
| 2026-05-08 14:58 | 42.69925 | 1.47025 | 35978 ft | 470 kts | 351° |
| 2026-05-08 14:58 | 42.76426 | 1.45980 | 35974 ft | 470 kts | 351° |
| 2026-05-08 14:59 | 42.82927 | 1.44933 | 35954 ft | 470 kts | 351° |
| 2026-05-08 14:59 | 42.92672 | 1.43355 | 35948 ft | 470 kts | 352° |
| 2026-05-08 15:00 | 42.99161 | 1.42308 | 35943 ft | 469 kts | 352° |
| 2026-05-08 15:00 | 43.05641 | 1.41251 | 35938 ft | 469 kts | 352° |
| 2026-05-08 15:01 | 43.12115 | 1.40189 | 35940 ft | 468 kts | 352° |
| 2026-05-08 15:01 | 43.18583 | 1.39135 | 35935 ft | 468 kts | 352° |
| 2026-05-08 15:02 | 43.25045 | 1.38079 | 35935 ft | 467 kts | 352° |
| 2026-05-08 15:02 | 43.31500 | 1.37017 | 35930 ft | 467 kts | 352° |
| 2026-05-08 15:03 | 43.37911 | 1.35965 | 35935 ft | 467 kts | 352° |
| 2026-05-08 15:03 | 43.44359 | 1.34905 | 35949 ft | 467 kts | 352° |
| 2026-05-08 15:04 | 43.50717 | 1.33863 | 35952 ft | 466 kts | 352° |
| 2026-05-08 15:04 | 43.57156 | 1.32792 | 35956 ft | 466 kts | 352° |
| 2026-05-08 15:05 | 43.63594 | 1.31721 | 35958 ft | 466 kts | 352° |
| 2026-05-08 15:05 | 43.69986 | 1.30359 | 35956 ft | 464 kts | 345° |
| 2026-05-08 15:06 | 43.76258 | 1.28271 | 35954 ft | 463 kts | 345° |
| 2026-05-08 15:06 | 43.82529 | 1.26193 | 35954 ft | 463 kts | 345° |
| 2026-05-08 15:07 | 43.88793 | 1.24105 | 35951 ft | 463 kts | 345° |
| 2026-05-08 15:07 | 43.95050 | 1.22012 | 35951 ft | 462 kts | 345° |
| 2026-05-08 15:08 | 44.00256 | 1.20271 | 35951 ft | 462 kts | 345° |
| 2026-05-08 15:08 | 44.07555 | 1.17820 | 35955 ft | 462 kts | 345° |
| 2026-05-08 15:09 | 44.13799 | 1.15721 | 35957 ft | 461 kts | 345° |
| 2026-05-08 15:09 | 44.20032 | 1.13614 | 35957 ft | 461 kts | 345° |
| 2026-05-08 15:10 | 44.26260 | 1.11511 | 35956 ft | 461 kts | 345° |
| 2026-05-08 15:10 | 44.32494 | 1.09415 | 35958 ft | 460 kts | 345° |
| 2026-05-08 15:11 | 44.38715 | 1.07314 | 35953 ft | 460 kts | 345° |
| 2026-05-08 15:11 | 44.44931 | 1.05203 | 35952 ft | 460 kts | 345° |
| 2026-05-08 15:12 | 44.51150 | 1.03086 | 35952 ft | 460 kts | 345° |
| 2026-05-08 15:12 | 44.56312 | 1.01317 | 35954 ft | 460 kts | 345° |
| 2026-05-08 15:13 | 44.62522 | 0.99187 | 35950 ft | 459 kts | 345° |
| 2026-05-08 15:13 | 44.68734 | 0.97056 | 35948 ft | 459 kts | 345° |
| 2026-05-08 15:14 | 44.74946 | 0.94934 | 35946 ft | 459 kts | 345° |
| 2026-05-08 15:14 | 44.81152 | 0.92798 | 35944 ft | 459 kts | 344° |
| 2026-05-08 15:15 | 44.87349 | 0.90657 | 35940 ft | 458 kts | 344° |
| 2026-05-08 15:15 | 44.93535 | 0.88517 | 35938 ft | 458 kts | 344° |
| 2026-05-08 15:16 | 44.99716 | 0.86377 | 35935 ft | 457 kts | 344° |
| 2026-05-08 15:16 | 45.05890 | 0.84234 | 35934 ft | 457 kts | 344° |
| 2026-05-08 15:17 | 45.12054 | 0.82088 | 35931 ft | 456 kts | 344° |
| 2026-05-08 15:17 | 45.18220 | 0.79946 | 35934 ft | 456 kts | 344° |
| 2026-05-08 15:18 | 45.24369 | 0.77799 | 35935 ft | 455 kts | 344° |
| 2026-05-08 15:18 | 45.30511 | 0.75645 | 35937 ft | 454 kts | 344° |
| 2026-05-08 15:19 | 45.36649 | 0.73484 | 35936 ft | 454 kts | 344° |
| 2026-05-08 15:19 | 45.42785 | 0.71326 | 35941 ft | 454 kts | 344° |
| 2026-05-08 15:20 | 45.48921 | 0.69166 | 35948 ft | 454 kts | 344° |
| 2026-05-08 15:20 | 45.55049 | 0.67002 | 35955 ft | 453 kts | 344° |
| 2026-05-08 15:21 | 45.61165 | 0.64828 | 35959 ft | 453 kts | 343° |
| 2026-05-08 15:21 | 45.67274 | 0.62651 | 35962 ft | 452 kts | 343° |
| 2026-05-08 15:22 | 45.73381 | 0.60480 | 35962 ft | 452 kts | 343° |
| 2026-05-08 15:22 | 45.79474 | 0.58311 | 35965 ft | 451 kts | 343° |
| 2026-05-08 15:23 | 45.85563 | 0.56131 | 35959 ft | 451 kts | 343° |
| 2026-05-08 15:23 | 45.91578 | 0.53983 | 35964 ft | 450 kts | 343° |
| 2026-05-08 15:24 | 45.97682 | 0.51794 | 35960 ft | 450 kts | 343° |
| 2026-05-08 15:24 | 46.03746 | 0.49608 | 35962 ft | 449 kts | 343° |
| 2026-05-08 15:25 | 46.09807 | 0.47422 | 35959 ft | 449 kts | 343° |
| 2026-05-08 15:25 | 46.15812 | 0.45264 | 35958 ft | 448 kts | 343° |
| 2026-05-08 15:26 | 46.21905 | 0.43051 | 35955 ft | 447 kts | 343° |
| 2026-05-08 15:26 | 46.27889 | 0.40862 | 35961 ft | 447 kts | 343° |
| 2026-05-08 15:27 | 46.33917 | 0.38670 | 35959 ft | 446 kts | 343° |
| 2026-05-08 15:27 | 46.39938 | 0.36484 | 35958 ft | 446 kts | 343° |
| 2026-05-08 15:28 | 46.45949 | 0.34290 | 35957 ft | 445 kts | 343° |
| 2026-05-08 15:28 | 46.51954 | 0.32079 | 35955 ft | 445 kts | 343° |
| 2026-05-08 15:29 | 46.58053 | 0.30573 | 35952 ft | 448 kts | 357° |
| 2026-05-08 15:29 | 46.64255 | 0.31691 | 35948 ft | 452 kts | 10° |
| 2026-05-08 15:30 | 46.70407 | 0.33586 | 35944 ft | 452 kts | 9° |
| 2026-05-08 15:30 | 46.76554 | 0.35479 | 35946 ft | 451 kts | 9° |
| 2026-05-08 15:31 | 46.82693 | 0.37362 | 35951 ft | 451 kts | 9° |
| 2026-05-08 15:31 | 46.88847 | 0.39255 | 35954 ft | 451 kts | 9° |
| 2026-05-08 15:32 | 46.94983 | 0.41164 | 35958 ft | 451 kts | 9° |
| 2026-05-08 15:32 | 47.01114 | 0.43069 | 35963 ft | 450 kts | 9° |
| 2026-05-08 15:33 | 47.07269 | 0.44665 | 35965 ft | 447 kts | 0° |
| 2026-05-08 15:33 | 47.13399 | 0.43978 | 35971 ft | 440 kts | 347° |
| 2026-05-08 15:34 | 47.19454 | 0.42592 | 35967 ft | 443 kts | 355° |
| 2026-05-08 15:34 | 47.22531 | 0.42958 | 35960 ft | 448 kts | 11° |
| 2026-05-08 15:34 | 47.25457 | 0.44572 | 35965 ft | 452 kts | 25° |
| 2026-05-08 15:35 | 47.31026 | 0.48917 | 35666 ft | 454 kts | 26° |
| 2026-05-08 15:35 | 47.33810 | 0.51112 | 35035 ft | 454 kts | 26° |
| 2026-05-08 15:35 | 47.36589 | 0.53311 | 34487 ft | 451 kts | 26° |
| 2026-05-08 15:36 | 47.39344 | 0.55487 | 33914 ft | 449 kts | 26° |
| 2026-05-08 15:36 | 47.41176 | 0.56930 | 33495 ft | 448 kts | 25° |
| 2026-05-08 15:36 | 47.44838 | 0.59803 | 32743 ft | 443 kts | 25° |
| 2026-05-08 15:36 | 47.47551 | 0.61930 | 32190 ft | 440 kts | 25° |
| 2026-05-08 15:37 | 47.50246 | 0.64048 | 31643 ft | 437 kts | 25° |
| 2026-05-08 15:37 | 47.52917 | 0.66153 | 31104 ft | 434 kts | 25° |
| 2026-05-08 15:37 | 47.55576 | 0.68252 | 30566 ft | 431 kts | 25° |
| 2026-05-08 15:37 | 47.58205 | 0.70331 | 30031 ft | 428 kts | 25° |
| 2026-05-08 15:38 | 47.60821 | 0.72401 | 29458 ft | 424 kts | 25° |
| 2026-05-08 15:38 | 47.63403 | 0.74447 | 28944 ft | 419 kts | 25° |
| 2026-05-08 15:38 | 47.65958 | 0.76474 | 28435 ft | 414 kts | 25° |
| 2026-05-08 15:38 | 47.68477 | 0.78476 | 27934 ft | 408 kts | 25° |
| 2026-05-08 15:39 | 47.70968 | 0.80457 | 27447 ft | 403 kts | 25° |
| 2026-05-08 15:39 | 47.73421 | 0.82410 | 26968 ft | 397 kts | 25° |
| 2026-05-08 15:39 | 47.75810 | 0.84310 | 26513 ft | 392 kts | 25° |
| 2026-05-08 15:39 | 47.78199 | 0.86214 | 26059 ft | 386 kts | 25° |
| 2026-05-08 15:40 | 47.80543 | 0.88089 | 25628 ft | 380 kts | 25° |
| 2026-05-08 15:40 | 47.82860 | 0.89942 | 25191 ft | 376 kts | 25° |
| 2026-05-08 15:40 | 47.85147 | 0.91770 | 24772 ft | 371 kts | 25° |
| 2026-05-08 15:40 | 47.87410 | 0.93580 | 24361 ft | 367 kts | 25° |
| 2026-05-08 15:41 | 47.89649 | 0.95373 | 23944 ft | 363 kts | 25° |
| 2026-05-08 15:41 | 47.91859 | 0.97146 | 23524 ft | 359 kts | 25° |
| 2026-05-08 15:41 | 47.94049 | 0.98906 | 23064 ft | 355 kts | 25° |
| 2026-05-08 15:41 | 47.96216 | 1.00648 | 22653 ft | 352 kts | 25° |
| 2026-05-08 15:42 | 47.98364 | 1.02373 | 22244 ft | 350 kts | 25° |
| 2026-05-08 15:42 | 48.00503 | 1.04093 | 21834 ft | 349 kts | 25° |
| 2026-05-08 15:42 | 48.02636 | 1.05810 | 21417 ft | 347 kts | 25° |
| 2026-05-08 15:42 | 48.04760 | 1.07523 | 20996 ft | 346 kts | 25° |
| 2026-05-08 15:43 | 48.06872 | 1.09226 | 20574 ft | 344 kts | 26° |
| 2026-05-08 15:43 | 48.08976 | 1.10927 | 20156 ft | 343 kts | 26° |
| 2026-05-08 15:43 | 48.11072 | 1.12628 | 19733 ft | 342 kts | 26° |
| 2026-05-08 15:43 | 48.13157 | 1.14322 | 19312 ft | 341 kts | 26° |
| 2026-05-08 15:44 | 48.15244 | 1.16014 | 18898 ft | 340 kts | 26° |
| 2026-05-08 15:44 | 48.17319 | 1.17697 | 18484 ft | 339 kts | 26° |
| 2026-05-08 15:44 | 48.19359 | 1.19351 | 18038 ft | 337 kts | 26° |
| 2026-05-08 15:44 | 48.21442 | 1.21045 | 17620 ft | 336 kts | 26° |
| 2026-05-08 15:45 | 48.23487 | 1.22709 | 17206 ft | 333 kts | 26° |
| 2026-05-08 15:45 | 48.25496 | 1.24342 | 16816 ft | 331 kts | 26° |
| 2026-05-08 15:45 | 48.27517 | 1.25987 | 16422 ft | 329 kts | 26° |
| 2026-05-08 15:45 | 48.29524 | 1.27625 | 16028 ft | 327 kts | 26° |
| 2026-05-08 15:46 | 48.31520 | 1.29258 | 15639 ft | 328 kts | 26° |
| 2026-05-08 15:46 | 48.33635 | 1.30982 | 15230 ft | 364 kts | 26° |
| 2026-05-08 15:46 | 48.35939 | 1.32859 | 14770 ft | 392 kts | 26° |
| 2026-05-08 15:46 | 48.38402 | 1.34869 | 14285 ft | 414 kts | 27° |
| 2026-05-08 15:47 | 48.40977 | 1.36980 | 13758 ft | 425 kts | 27° |
| 2026-05-08 15:47 | 48.43565 | 1.39124 | 13228 ft | 424 kts | 29° |
| 2026-05-08 15:47 | 48.45920 | 1.41786 | 12952 ft | 424 kts | 41° |
| 2026-05-08 15:47 | 48.48115 | 1.44755 | 12691 ft | 424 kts | 41° |
| 2026-05-08 15:48 | 48.52466 | 1.50681 | 12166 ft | 420 kts | 41° |
| 2026-05-08 15:48 | 48.54627 | 1.53639 | 11913 ft | 418 kts | 41° |
| 2026-05-08 15:48 | 48.56777 | 1.56590 | 11660 ft | 417 kts | 41° |
| 2026-05-08 15:49 | 48.58922 | 1.59541 | 11406 ft | 415 kts | 41° |
| 2026-05-08 15:49 | 48.61051 | 1.62476 | 11158 ft | 414 kts | 41° |
| 2026-05-08 15:49 | 48.63174 | 1.65406 | 10913 ft | 413 kts | 42° |
| 2026-05-08 15:49 | 48.65291 | 1.68329 | 10664 ft | 411 kts | 42° |
| 2026-05-08 15:50 | 48.67399 | 1.71236 | 10414 ft | 409 kts | 41° |
| 2026-05-08 15:50 | 48.69499 | 1.74136 | 10177 ft | 408 kts | 42° |
| 2026-05-08 15:50 | 48.71590 | 1.77032 | 9953 ft | 407 kts | 42° |
| 2026-05-08 15:50 | 48.73673 | 1.79920 | 9821 ft | 406 kts | 42° |
| 2026-05-08 15:51 | 48.75751 | 1.82805 | 9685 ft | 405 kts | 42° |
| 2026-05-08 15:51 | 48.77829 | 1.85688 | 9550 ft | 404 kts | 42° |
| 2026-05-08 15:51 | 48.79898 | 1.88558 | 9416 ft | 402 kts | 42° |
| 2026-05-08 15:51 | 48.81904 | 1.91344 | 9275 ft | 380 kts | 42° |
| 2026-05-08 15:52 | 48.83802 | 1.93987 | 9140 ft | 361 kts | 42° |
| 2026-05-08 15:52 | 48.85438 | 1.96274 | 9020 ft | 344 kts | 42° |
| 2026-05-08 15:52 | 48.87155 | 1.98677 | 8888 ft | 327 kts | 42° |
| 2026-05-08 15:52 | 48.88775 | 2.00941 | 8682 ft | 304 kts | 42° |
| 2026-05-08 15:53 | 48.90297 | 2.03076 | 8179 ft | 296 kts | 42° |
| 2026-05-08 15:53 | 48.91784 | 2.05170 | 7667 ft | 290 kts | 43° |
| 2026-05-08 15:53 | 48.93291 | 2.07295 | 6889 ft | 301 kts | 43° |
| 2026-05-08 15:53 | 48.94846 | 2.09490 | 6072 ft | 309 kts | 43° |
| 2026-05-08 15:54 | 48.96440 | 2.11745 | 5312 ft | 314 kts | 43° |
| 2026-05-08 15:54 | 48.97486 | 2.13224 | 5118 ft | 306 kts | 43° |
| 2026-05-08 15:54 | 48.99012 | 2.15381 | 4934 ft | 292 kts | 43° |
| 2026-05-08 15:54 | 49.00266 | 2.17673 | 4809 ft | 275 kts | 64° |
| 2026-05-08 15:55 | 49.00708 | 2.20437 | 4458 ft | 269 kts | 86° |
| 2026-05-08 15:55 | 49.01002 | 2.25998 | 3802 ft | 259 kts | 84° |
| 2026-05-08 15:55 | 49.01158 | 2.28698 | 3460 ft | 253 kts | 84° |
| 2026-05-08 15:56 | 49.01306 | 2.31326 | 3122 ft | 242 kts | 84° |
| 2026-05-08 15:56 | 49.01443 | 2.33791 | 2809 ft | 226 kts | 84° |
| 2026-05-08 15:56 | 49.01571 | 2.36093 | 2546 ft | 210 kts | 84° |
| 2026-05-08 15:56 | 49.01690 | 2.38245 | 2265 ft | 199 kts | 84° |
| 2026-05-08 15:57 | 49.01804 | 2.40294 | 1986 ft | 188 kts | 84° |
| 2026-05-08 15:57 | 49.01907 | 2.42177 | 1752 ft | 170 kts | 84° |
| 2026-05-08 15:57 | 49.02001 | 2.43885 | 1526 ft | 155 kts | 84° |
| 2026-05-08 15:57 | 49.02088 | 2.45461 | 1328 ft | 145 kts | 84° |
| 2026-05-08 15:58 | 49.02170 | 2.46957 | 1163 ft | 140 kts | 83° |
| 2026-05-08 15:58 | 49.02249 | 2.48433 | 974 ft | 139 kts | 83° |
| 2026-05-08 15:58 | 49.02323 | 2.49890 | 722 ft | 137 kts | 84° |
| 2026-05-08 15:58 | 49.02403 | 2.51330 | 571 ft | 136 kts | 81° |
| 2026-05-08 15:59 | 49.02483 | 2.52763 | 380 ft | 135 kts | 82° |
| 2026-05-08 15:59 | 49.02566 | 2.54073 | 362 ft | 104 kts | 85° |
| 2026-05-08 15:59 | 49.02605 | 2.54888 | 359 ft | 52 kts | 85° |
| 2026-05-08 15:59 | 49.02623 | 2.55262 | 359 ft | 30 kts | 87° |
| 2026-05-08 16:00 | 49.02639 | 2.55568 | 363 ft | 28 kts | 84° |
| 2026-05-08 16:00 | 49.02613 | 2.55840 | 359 ft | 23 kts | 117° |
| 2026-05-08 16:00 | 49.02503 | 2.55997 | 356 ft | 21 kts | 115° |
| 2026-05-08 16:00 | 49.02452 | 2.56153 | 360 ft | 14 kts | 141° |
| 2026-05-08 16:01 | 49.02425 | 2.56162 | 358 ft | 0 kts | 186° |
| 2026-05-08 16:01 | 49.02416 | 2.56161 | 358 ft | 6 kts | 184° |
| 2026-05-08 16:02 | 49.02352 | 2.56164 | 354 ft | 10 kts | 174° |
| 2026-05-08 16:02 | 49.02293 | 2.56198 | 362 ft | 8 kts | 143° |
| 2026-05-08 16:02 | 49.02257 | 2.56260 | 359 ft | 7 kts | 133° |
| 2026-05-08 16:02 | 49.02204 | 2.56300 | 361 ft | 12 kts | 172° |
| 2026-05-08 16:03 | 49.02099 | 2.56317 | 359 ft | 19 kts | 174° |
| 2026-05-08 16:03 | 49.01953 | 2.56371 | 360 ft | 25 kts | 130° |
| 2026-05-08 16:03 | 49.01945 | 2.56668 | 362 ft | 32 kts | 85° |
| 2026-05-08 16:03 | 49.01964 | 2.57001 | 361 ft | 32 kts | 85° |
| 2026-05-08 16:04 | 49.01983 | 2.57335 | 355 ft | 32 kts | 86° |
| 2026-05-08 16:04 | 49.01998 | 2.57669 | 355 ft | 32 kts | 86° |
| 2026-05-08 16:04 | 49.01908 | 2.57948 | 359 ft | 30 kts | 153° |
| 2026-05-08 16:04 | 49.01703 | 2.58003 | 358 ft | 30 kts | 175° |
| 2026-05-08 16:05 | 49.01497 | 2.58027 | 355 ft | 29 kts | 177° |
| 2026-05-08 16:05 | 49.01294 | 2.58050 | 361 ft | 29 kts | 173° |
| 2026-05-08 16:05 | 49.01110 | 2.58076 | 358 ft | 22 kts | 176° |
| 2026-05-08 16:05 | 49.00960 | 2.58087 | 355 ft | 21 kts | 194° |
| 2026-05-08 16:06 | 49.00899 | 2.57926 | 355 ft | 18 kts | 264° |
| 2026-05-08 16:06 | 49.00889 | 2.57734 | 360 ft | 18 kts | 266° |
| 2026-05-08 16:06 | 49.00879 | 2.57549 | 362 ft | 17 kts | 263° |
| 2026-05-08 16:06 | 49.00868 | 2.57371 | 355 ft | 17 kts | 266° |
| 2026-05-08 16:07 | 49.00834 | 2.57220 | 358 ft | 15 kts | 209° |
| 2026-05-08 16:07 | 49.00737 | 2.57225 | 355 ft | 14 kts | 177° |
| 2026-05-08 16:07 | 49.00677 | 2.57132 | 359 ft | 13 kts | 255° |
| 2026-05-08 16:07 | 49.00656 | 2.56998 | 356 ft | 12 kts | 256° |
| 2026-05-08 16:08 | 49.00631 | 2.56880 | 353 ft | 11 kts | 259° |
| 2026-05-08 16:08 | 49.00626 | 2.56786 | 353 ft | 8 kts | 266° |
| 2026-05-08 16:08 | 49.00622 | 2.56706 | 361 ft | 7 kts | 266° |
| 2026-05-08 16:08 | 49.00605 | 2.56659 | 360 ft | 4 kts | 200° |
| 2026-05-08 16:09 | 49.00580 | 2.56660 | 353 ft | 2 kts | 174° |
| 2026-05-08 16:09 | 49.00568 | 2.56661 | 356 ft | 1 kts | 177° |
| 2026-05-08 16:09 | 49.00564 | 2.56661 | 353 ft | 0 kts | 177° |
| 2026-05-08 16:09 | 49.00562 | 2.56662 | 353 ft | 0 kts | 177° |